Time;durP1;ratioP1;P1;durP2;ratioP2;P2;SDS_P1;SDS_P2;PMS_P1;PMS_P2;Temp;Humidity;BMP_temperature;BMP_pressure;BME280_temperature;BME280_humidity;BME280_pressure;Samples;Min_cycle;Max_cycle;Signal;HPM_P1;HPM_P2
2023/04/16 00:00:08;;;;;;;;;;;10.30;99.90;;;;;;5077768;28;20259;-74
2023/04/16 00:02:34;;;;;;;;;;;10.30;99.90;;;;;;5075288;28;19915;-73
2023/04/16 00:05:00;;;;;;;;;;;10.30;99.90;;;;;;5075598;28;19928;-74
2023/04/16 00:07:25;;;;;;;;;;;10.40;99.90;;;;;;5076637;28;19918;-74
2023/04/16 00:09:51;;;;;;;;;;;10.40;99.90;;;;;;5075858;28;19909;-74
2023/04/16 00:12:17;;;;;;;;;;;10.40;99.90;;;;;;5077540;28;19912;-74
2023/04/16 00:14:42;;;;;;;;;;;10.50;99.90;;;;;;5076889;28;19916;-73
2023/04/16 00:17:11;;;;;;;;;;;10.50;99.90;;;;;;5076057;28;19908;-74
2023/04/16 00:19:37;;;;;;;;;;;10.60;99.90;;;;;;5076301;28;19924;-72
2023/04/16 00:22:02;;;;;;;;;;;10.60;99.90;;;;;;5074902;28;19977;-74
2023/04/16 00:24:28;;;;;;;;;;;10.70;99.90;;;;;;5074895;28;19928;-74
2023/04/16 00:26:54;;;;;;;;;;;10.80;99.90;;;;;;5075119;28;19908;-74
2023/04/16 00:29:20;;;;;;;;;;;10.70;99.90;;;;;;5076917;28;19910;-75
2023/04/16 00:31:46;;;;;;;;;;;10.80;99.90;;;;;;5074824;28;20294;-73
2023/04/16 00:34:12;;;;;;;;;;;10.80;99.90;;;;;;5075689;28;19920;-74
2023/04/16 00:36:37;;;;;;;;;;;10.90;99.90;;;;;;5073875;28;20007;-73
2023/04/16 00:39:03;;;;;;;;;;;10.90;99.90;;;;;;5075142;28;19991;-73
2023/04/16 00:41:28;;;;;;;;;;;10.90;99.90;;;;;;5074496;28;19932;-73
2023/04/16 00:43:54;;;;;;;;;;;10.90;99.90;;;;;;5073504;28;20004;-74
2023/04/16 00:46:21;;;;;;;;;;;10.90;99.90;;;;;;5074247;28;19908;-74
2023/04/16 00:48:46;;;;;;;;;;;10.90;99.90;;;;;;5073591;28;20385;-74
2023/04/16 00:51:12;;;;;;;;;;;10.80;99.90;;;;;;5075505;28;19983;-73
2023/04/16 00:53:37;;;;;;;;;;;10.80;99.90;;;;;;5074867;28;19959;-74
2023/04/16 00:56:04;;;;;;;;;;;10.80;99.90;;;;;;5075577;28;19962;-74
2023/04/16 00:58:30;;;;;;;;;;;10.80;99.90;;;;;;5074961;28;19961;-74
2023/04/16 01:00:55;;;;;;;;;;;10.80;99.90;;;;;;5076128;28;20300;-74
2023/04/16 01:03:22;;;;;;;;;;;10.70;99.90;;;;;;5077917;28;19920;-74
2023/04/16 01:05:50;;;;;;;;;;;10.80;99.90;;;;;;5078972;28;19915;-74
2023/04/16 01:08:17;;;;;;;;;;;10.70;99.90;;;;;;5078167;28;19930;-75
2023/04/16 01:10:42;;;;;;;;;;;10.70;99.90;;;;;;5077532;28;19939;-74
2023/04/16 01:13:08;;;;;;;;;;;10.70;99.90;;;;;;5077362;28;19909;-74
2023/04/16 01:15:34;;;;;;;;;;;10.60;99.90;;;;;;5078879;28;19915;-74
2023/04/16 01:17:59;;;;;;;;;;;10.60;99.90;;;;;;5077933;28;19908;-74
2023/04/16 01:20:25;;;;;;;;;;;10.60;99.90;;;;;;5078561;28;19931;-74
2023/04/16 01:22:51;;;;;;;;;;;10.60;99.90;;;;;;5079902;28;20022;-74
2023/04/16 01:25:16;;;;;;;;;;;10.50;99.90;;;;;;5080051;28;19923;-74
2023/04/16 01:27:42;;;;;;;;;;;10.60;99.90;;;;;;5079207;28;19909;-74
2023/04/16 01:30:08;;;;;;;;;;;10.60;99.90;;;;;;5079097;28;19919;-74
2023/04/16 01:32:33;;;;;;;;;;;10.60;99.90;;;;;;5078800;28;19909;-73
2023/04/16 01:34:59;;;;;;;;;;;10.60;99.90;;;;;;5076851;28;19919;-73
2023/04/16 01:37:25;;;;;;;;;;;10.50;99.90;;;;;;5077206;28;19962;-73
2023/04/16 01:39:51;;;;;;;;;;;10.50;99.90;;;;;;5075752;28;19908;-73
2023/04/16 01:42:16;;;;;;;;;;;10.50;99.90;;;;;;5075428;28;19942;-74
2023/04/16 01:44:42;;;;;;;;;;;10.50;99.90;;;;;;5075354;28;19930;-73
2023/04/16 01:47:07;;;;;;;;;;;10.60;99.90;;;;;;5073778;28;19904;-73
2023/04/16 01:49:33;;;;;;;;;;;10.50;99.90;;;;;;5075552;28;19909;-74
2023/04/16 01:51:59;;;;;;;;;;;10.50;99.90;;;;;;5075990;28;19908;-74
2023/04/16 01:54:25;;;;;;;;;;;10.50;99.90;;;;;;5075654;28;19938;-73
2023/04/16 01:56:50;;;;;;;;;;;10.50;99.90;;;;;;5075180;28;19950;-72
2023/04/16 01:59:16;;;;;;;;;;;10.50;99.90;;;;;;5074748;28;19922;-75
2023/04/16 02:01:42;;;;;;;;;;;10.50;99.90;;;;;;5074805;28;19908;-74
2023/04/16 02:04:08;;;;;;;;;;;10.50;99.90;;;;;;5076703;28;19915;-74
2023/04/16 02:06:34;;;;;;;;;;;10.40;99.90;;;;;;5078770;28;19916;-74
2023/04/16 02:08:59;;;;;;;;;;;10.40;99.90;;;;;;5078493;28;19923;-74
2023/04/16 02:11:25;;;;;;;;;;;10.40;99.90;;;;;;5078824;28;20390;-73
2023/04/16 02:13:51;;;;;;;;;;;10.40;99.90;;;;;;5077116;28;19912;-74
2023/04/16 02:16:16;;;;;;;;;;;10.50;99.90;;;;;;5075451;28;20389;-73
2023/04/16 02:18:42;;;;;;;;;;;10.60;99.90;;;;;;5078248;28;19963;-74
2023/04/16 02:21:07;;;;;;;;;;;10.60;99.90;;;;;;5075355;28;19962;-74
2023/04/16 02:23:33;;;;;;;;;;;10.70;99.90;;;;;;5072404;28;19973;-75
2023/04/16 02:25:59;;;;;;;;;;;10.70;99.90;;;;;;5074204;28;19931;-74
2023/04/16 02:28:25;;;;;;;;;;;10.70;99.90;;;;;;5073356;28;19962;-74
2023/04/16 02:30:51;;;;;;;;;;;10.70;99.90;;;;;;5073027;28;19912;-74
2023/04/16 02:33:16;;;;;;;;;;;10.70;99.90;;;;;;5072870;28;20395;-74
2023/04/16 02:35:42;;;;;;;;;;;10.70;99.90;;;;;;5073773;28;19909;-74
2023/04/16 02:38:08;;;;;;;;;;;10.70;99.90;;;;;;5074077;28;19909;-73
2023/04/16 02:40:34;;;;;;;;;;;10.70;99.90;;;;;;5074392;28;19969;-74
2023/04/16 02:42:59;;;;;;;;;;;10.70;99.90;;;;;;5074702;28;20347;-73
2023/04/16 02:45:25;;;;;;;;;;;10.80;99.90;;;;;;5074459;28;19987;-73
2023/04/16 02:47:51;;;;;;;;;;;10.80;99.90;;;;;;5073674;28;19909;-72
2023/04/16 02:50:16;;;;;;;;;;;10.80;99.90;;;;;;5077250;28;20396;-73
2023/04/16 02:52:42;;;;;;;;;;;10.80;99.90;;;;;;5075075;28;20006;-74
2023/04/16 02:55:08;;;;;;;;;;;10.80;99.90;;;;;;5076073;28;19919;-73
2023/04/16 02:57:34;;;;;;;;;;;10.80;99.90;;;;;;5075565;28;20007;-75
2023/04/16 02:59:59;;;;;;;;;;;10.70;99.90;;;;;;5075232;28;19909;-73
2023/04/16 03:02:26;;;;;;;;;;;10.70;99.90;;;;;;5073762;28;19908;-74
2023/04/16 03:04:52;;;;;;;;;;;10.70;99.90;;;;;;5075422;28;19913;-73
2023/04/16 03:07:18;;;;;;;;;;;10.70;99.90;;;;;;5074848;28;19909;-74
2023/04/16 03:09:43;;;;;;;;;;;10.60;99.90;;;;;;5072968;28;20337;-74
2023/04/16 03:12:09;;;;;;;;;;;10.70;99.90;;;;;;5073546;28;19963;-75
2023/04/16 03:14:35;;;;;;;;;;;10.70;99.90;;;;;;5075281;28;19919;-75
2023/04/16 03:17:00;;;;;;;;;;;10.70;99.90;;;;;;5073198;28;19954;-74
2023/04/16 03:19:26;;;;;;;;;;;10.80;99.90;;;;;;5074835;28;19913;-73
2023/04/16 03:21:52;;;;;;;;;;;10.70;99.90;;;;;;5074921;28;19916;-73
2023/04/16 03:24:17;;;;;;;;;;;10.80;99.90;;;;;;5073538;28;19916;-74
2023/04/16 03:26:43;;;;;;;;;;;10.80;99.90;;;;;;5074164;28;19915;-75
2023/04/16 03:29:08;;;;;;;;;;;10.90;99.90;;;;;;5073181;28;19955;-74
2023/04/16 03:31:34;;;;;;;;;;;11.00;99.90;;;;;;5072652;28;20007;-73
2023/04/16 03:34:00;;;;;;;;;;;11.00;99.90;;;;;;5073297;28;20301;-74
2023/04/16 03:36:28;;;;;;;;;;;11.00;99.90;;;;;;5077281;28;19908;-74
2023/04/16 03:38:54;;;;;;;;;;;11.00;99.90;;;;;;5077147;28;20286;-74
2023/04/16 03:41:19;;;;;;;;;;;11.10;99.90;;;;;;5076696;28;19948;-73
2023/04/16 03:43:45;;;;;;;;;;;11.10;99.90;;;;;;5075941;28;19916;-73
2023/04/16 03:46:11;;;;;;;;;;;11.10;99.90;;;;;;5076949;28;20007;-73
2023/04/16 03:48:36;;;;;;;;;;;11.10;99.90;;;;;;5078828;28;19980;-73
2023/04/16 03:51:02;;;;;;;;;;;11.10;99.90;;;;;;5075916;28;20360;-74
2023/04/16 03:53:28;;;;;;;;;;;11.10;99.90;;;;;;5077402;28;20401;-74
2023/04/16 03:55:53;;;;;;;;;;;11.00;99.90;;;;;;5074712;28;19956;-73
2023/04/16 03:58:19;;;;;;;;;;;11.00;99.90;;;;;;5076003;28;19915;-73
2023/04/16 04:00:45;;;;;;;;;;;11.00;99.90;;;;;;5074628;28;19916;-74
2023/04/16 04:03:11;;;;;;;;;;;10.90;99.90;;;;;;5075931;28;20132;-74
2023/04/16 04:05:38;;;;;;;;;;;11.00;99.90;;;;;;5074383;28;19913;-73
2023/04/16 04:08:04;;;;;;;;;;;11.00;99.90;;;;;;5076428;28;19970;-73
2023/04/16 04:10:33;;;;;;;;;;;11.10;99.90;;;;;;5075441;28;19912;-73
2023/04/16 04:12:58;;;;;;;;;;;11.00;99.90;;;;;;5074812;28;19908;-73
2023/04/16 04:15:24;;;;;;;;;;;10.90;99.90;;;;;;5074614;28;20014;-74
2023/04/16 04:17:50;;;;;;;;;;;10.90;99.90;;;;;;5076407;28;19920;-73
2023/04/16 04:20:15;;;;;;;;;;;11.00;99.90;;;;;;5076506;28;20003;-73
2023/04/16 04:22:41;;;;;;;;;;;10.90;99.90;;;;;;5075202;28;20397;-74
2023/04/16 04:25:07;;;;;;;;;;;10.90;99.90;;;;;;5074802;28;19943;-73
2023/04/16 04:27:35;;;;;;;;;;;11.00;99.90;;;;;;5074306;28;21371;-73
2023/04/16 04:30:01;;;;;;;;;;;11.00;99.90;;;;;;5075933;28;19908;-74
2023/04/16 04:32:27;;;;;;;;;;;11.00;99.90;;;;;;5075093;28;19912;-73
2023/04/16 04:34:52;;;;;;;;;;;11.00;99.90;;;;;;5075085;28;19919;-73
2023/04/16 04:37:18;;;;;;;;;;;11.00;99.90;;;;;;5074478;28;19908;-74
2023/04/16 04:39:43;;;;;;;;;;;11.10;99.90;;;;;;5074882;28;20422;-74
2023/04/16 04:42:09;;;;;;;;;;;11.00;99.90;;;;;;5076172;28;20007;-74
2023/04/16 04:44:35;;;;;;;;;;;11.00;99.90;;;;;;5076305;28;19920;-74
2023/04/16 04:47:01;;;;;;;;;;;11.00;99.90;;;;;;5074647;28;19955;-74
2023/04/16 04:49:26;;;;;;;;;;;11.00;99.90;;;;;;5074733;28;20539;-74
2023/04/16 04:51:52;;;;;;;;;;;11.00;99.90;;;;;;5076746;28;19951;-74
2023/04/16 04:54:18;;;;;;;;;;;11.00;99.90;;;;;;5076104;28;19918;-74
2023/04/16 04:56:46;;;;;;;;;;;11.00;99.90;;;;;;5076036;28;19915;-73
2023/04/16 04:59:12;;;;;;;;;;;11.00;99.90;;;;;;5075684;28;19931;-73
2023/04/16 05:01:37;;;;;;;;;;;11.10;99.90;;;;;;5073957;28;20405;-74
2023/04/16 05:04:03;;;;;;;;;;;11.20;99.90;;;;;;5074650;28;19958;-74
2023/04/16 05:06:30;;;;;;;;;;;11.20;99.90;;;;;;5074856;28;19934;-73
2023/04/16 05:08:55;;;;;;;;;;;11.20;99.90;;;;;;5075864;28;19915;-74
2023/04/16 05:11:21;;;;;;;;;;;11.20;99.90;;;;;;5076071;28;19909;-73
2023/04/16 05:13:46;;;;;;;;;;;11.20;99.90;;;;;;5074187;28;19935;-77
2023/04/16 05:16:12;;;;;;;;;;;11.20;99.90;;;;;;5074464;28;20001;-74
2023/04/16 05:18:38;;;;;;;;;;;11.20;99.90;;;;;;5074143;28;19908;-74
2023/04/16 05:21:04;;;;;;;;;;;11.30;99.90;;;;;;5073110;28;20267;-73
2023/04/16 05:23:29;;;;;;;;;;;11.30;99.90;;;;;;5074837;28;19992;-73
2023/04/16 05:25:55;;;;;;;;;;;11.30;99.90;;;;;;5074697;28;20330;-73
2023/04/16 05:28:20;;;;;;;;;;;11.40;99.90;;;;;;5075466;28;19916;-72
2023/04/16 05:30:46;;;;;;;;;;;11.50;99.90;;;;;;5073735;28;20310;-74
2023/04/16 05:33:12;;;;;;;;;;;11.50;99.90;;;;;;5076015;28;19912;-74
2023/04/16 05:35:37;;;;;;;;;;;11.60;99.90;;;;;;5075626;28;19912;-73
2023/04/16 05:38:03;;;;;;;;;;;11.50;99.90;;;;;;5074890;28;20013;-73
2023/04/16 05:40:29;;;;;;;;;;;11.50;99.90;;;;;;5073629;28;20428;-74
2023/04/16 05:42:54;;;;;;;;;;;11.60;99.90;;;;;;5075207;28;20005;-74
2023/04/16 05:45:20;;;;;;;;;;;11.60;99.90;;;;;;5073849;28;20282;-73
2023/04/16 05:47:45;;;;;;;;;;;11.70;99.90;;;;;;5074882;28;20282;-74
2023/04/16 05:50:11;;;;;;;;;;;11.70;99.90;;;;;;5073863;28;19919;-73
2023/04/16 05:52:37;;;;;;;;;;;11.70;99.90;;;;;;5073735;28;19913;-74
2023/04/16 05:55:03;;;;;;;;;;;11.80;99.90;;;;;;5073827;28;19999;-74
2023/04/16 05:57:29;;;;;;;;;;;11.80;99.90;;;;;;5072789;28;19960;-74
2023/04/16 05:59:54;;;;;;;;;;;11.80;99.90;;;;;;5073627;28;19909;-74
2023/04/16 06:02:20;;;;;;;;;;;11.80;99.90;;;;;;5074426;28;19918;-73
2023/04/16 06:04:46;;;;;;;;;;;11.90;99.90;;;;;;5073174;28;19909;-74
2023/04/16 06:07:11;;;;;;;;;;;11.90;99.90;;;;;;5072964;28;19909;-74
2023/04/16 06:09:37;;;;;;;;;;;11.90;99.90;;;;;;5073325;28;19913;-74
2023/04/16 06:12:03;;;;;;;;;;;12.00;99.90;;;;;;5074072;28;19909;-74
2023/04/16 06:14:28;;;;;;;;;;;12.00;99.90;;;;;;5073106;28;19912;-73
2023/04/16 06:16:54;;;;;;;;;;;12.00;99.90;;;;;;5072537;28;20307;-74
2023/04/16 06:19:19;;;;;;;;;;;12.10;99.90;;;;;;5073231;28;19912;-73
2023/04/16 06:21:45;;;;;;;;;;;12.10;99.90;;;;;;5070637;28;20332;-73
2023/04/16 06:24:12;;;;;;;;;;;12.20;99.90;;;;;;5070436;28;19985;-73
2023/04/16 06:26:37;;;;;;;;;;;12.20;99.90;;;;;;5070419;28;19912;-73
2023/04/16 06:29:03;;;;;;;;;;;12.30;99.90;;;;;;5072595;28;19915;-73
2023/04/16 06:31:29;;;;;;;;;;;12.30;99.90;;;;;;5074114;28;19919;-74
2023/04/16 06:33:55;;;;;;;;;;;12.40;99.90;;;;;;5075548;28;19920;-74
2023/04/16 06:36:20;;;;;;;;;;;12.40;99.90;;;;;;5074877;28;20359;-74
2023/04/16 06:38:46;;;;;;;;;;;12.40;99.90;;;;;;5074676;28;19959;-75
2023/04/16 06:41:12;;;;;;;;;;;12.50;99.90;;;;;;5073626;28;19908;-74
2023/04/16 06:43:38;;;;;;;;;;;12.60;99.90;;;;;;5074295;28;19908;-74
2023/04/16 06:46:04;;;;;;;;;;;12.60;99.90;;;;;;5073683;28;19909;-74
2023/04/16 06:48:29;;;;;;;;;;;12.70;99.90;;;;;;5074154;28;19909;-73
2023/04/16 06:50:56;;;;;;;;;;;12.80;99.90;;;;;;5073079;28;19920;-75
2023/04/16 06:53:22;;;;;;;;;;;12.80;99.90;;;;;;5074195;28;19915;-74
2023/04/16 06:55:47;;;;;;;;;;;12.70;99.90;;;;;;5074828;28;20290;-74
2023/04/16 06:58:13;;;;;;;;;;;12.70;99.90;;;;;;5075456;28;19909;-75
2023/04/16 07:00:39;;;;;;;;;;;12.80;99.90;;;;;;5074196;28;20425;-74
2023/04/16 07:03:04;;;;;;;;;;;12.90;99.90;;;;;;5074050;28;19908;-75
2023/04/16 07:05:30;;;;;;;;;;;12.90;99.90;;;;;;5073967;28;19991;-72
2023/04/16 07:07:56;;;;;;;;;;;13.00;99.90;;;;;;5073955;28;20393;-74
2023/04/16 07:10:22;;;;;;;;;;;13.10;99.90;;;;;;5076559;28;19909;-74
2023/04/16 07:12:47;;;;;;;;;;;13.10;99.90;;;;;;5076745;28;20003;-74
2023/04/16 07:15:13;;;;;;;;;;;13.20;99.90;;;;;;5077322;28;19912;-74
2023/04/16 07:17:39;;;;;;;;;;;13.40;99.90;;;;;;5075462;28;19940;-73
2023/04/16 07:20:05;;;;;;;;;;;13.40;99.90;;;;;;5075892;28;19908;-74
2023/04/16 07:22:30;;;;;;;;;;;13.50;99.90;;;;;;5076970;28;19931;-74
2023/04/16 07:24:56;;;;;;;;;;;13.50;99.90;;;;;;5076199;28;20061;-74
2023/04/16 07:27:21;;;;;;;;;;;13.60;99.90;;;;;;5073840;28;19908;-75
2023/04/16 07:29:49;;;;;;;;;;;13.60;99.90;;;;;;5073712;28;20008;-73
2023/04/16 07:32:14;;;;;;;;;;;13.60;99.90;;;;;;5075981;28;19908;-74
2023/04/16 07:34:40;;;;;;;;;;;13.60;99.90;;;;;;5075353;28;20310;-73
2023/04/16 07:37:06;;;;;;;;;;;13.50;99.90;;;;;;5075941;28;20417;-73
2023/04/16 07:39:31;;;;;;;;;;;13.50;99.90;;;;;;5075647;28;19913;-74
2023/04/16 07:41:57;;;;;;;;;;;13.50;99.90;;;;;;5076808;28;19912;-74
2023/04/16 07:44:22;;;;;;;;;;;13.40;99.90;;;;;;5076686;28;19909;-74
2023/04/16 07:46:48;;;;;;;;;;;13.50;99.90;;;;;;5058390;28;19919;-73
2023/04/16 07:49:14;;;;;;;;;;;13.60;99.90;;;;;;5077051;28;19947;-74
2023/04/16 07:51:39;;;;;;;;;;;13.70;99.90;;;;;;5076600;28;19908;-74
2023/04/16 07:54:05;;;;;;;;;;;13.80;99.90;;;;;;5076114;28;19919;-74
2023/04/16 07:56:31;;;;;;;;;;;13.90;99.90;;;;;;5074629;28;19912;-74
2023/04/16 07:58:56;;;;;;;;;;;13.90;99.90;;;;;;5076492;28;19920;-75
2023/04/16 08:01:22;;;;;;;;;;;13.90;99.90;;;;;;5076287;28;20366;-75
2023/04/16 08:03:48;;;;;;;;;;;13.90;99.90;;;;;;5076469;28;20070;-74
2023/04/16 08:06:13;;;;;;;;;;;13.80;99.90;;;;;;5076013;28;19951;-74
2023/04/16 08:08:39;;;;;;;;;;;13.70;99.90;;;;;;5075080;28;20286;-73
2023/04/16 08:11:04;;;;;;;;;;;13.80;99.90;;;;;;5075280;28;19916;-74
2023/04/16 08:13:30;;;;;;;;;;;13.90;99.90;;;;;;5074806;28;19948;-75
2023/04/16 08:15:56;;;;;;;;;;;14.00;99.90;;;;;;5074904;28;20019;-75
2023/04/16 08:18:21;;;;;;;;;;;13.90;99.90;;;;;;5074640;28;19908;-74
2023/04/16 08:20:47;;;;;;;;;;;13.90;99.90;;;;;;5075824;28;19931;-73
2023/04/16 08:23:13;;;;;;;;;;;13.90;99.90;;;;;;5076025;28;19916;-74
2023/04/16 08:25:39;;;;;;;;;;;13.80;99.90;;;;;;5075465;28;20275;-74
2023/04/16 08:28:04;;;;;;;;;;;13.90;99.90;;;;;;5075562;28;19909;-74
2023/04/16 08:30:30;;;;;;;;;;;14.00;99.90;;;;;;5074161;28;19979;-73
2023/04/16 08:32:56;;;;;;;;;;;14.10;99.90;;;;;;5076465;28;19914;-76
2023/04/16 08:35:21;;;;;;;;;;;14.00;99.90;;;;;;5075510;28;20015;-74
2023/04/16 08:37:47;;;;;;;;;;;14.00;99.90;;;;;;5073695;28;19912;-74
2023/04/16 08:40:13;;;;;;;;;;;14.10;99.90;;;;;;5074121;28;20007;-75
2023/04/16 08:42:47;;;;;;;;;;;14.20;99.90;;;;;;5074444;28;19930;-74
2023/04/16 08:45:15;;;;;;;;;;;14.40;99.90;;;;;;5075532;28;19908;-75
2023/04/16 08:47:42;;;;;;;;;;;14.50;99.90;;;;;;5075247;28;19970;-74
2023/04/16 08:50:10;;;;;;;;;;;14.50;99.90;;;;;;5075012;28;19948;-74
2023/04/16 08:52:39;;;;;;;;;;;14.60;99.90;;;;;;5075206;28;19970;-74
2023/04/16 08:55:10;;;;;;;;;;;14.60;99.90;;;;;;5073901;28;19913;-73
2023/04/16 08:57:38;;;;;;;;;;;14.50;99.90;;;;;;5073535;28;19909;-74
2023/04/16 09:00:06;;;;;;;;;;;14.50;99.90;;;;;;5073658;28;19914;-74
2023/04/16 09:02:32;;;;;;;;;;;14.50;99.90;;;;;;5073878;28;20354;-74
2023/04/16 09:04:58;;;;;;;;;;;14.60;99.90;;;;;;5075507;28;19916;-75
2023/04/16 09:07:26;;;;;;;;;;;14.70;99.90;;;;;;5073791;28;19962;-74
2023/04/16 09:09:52;;;;;;;;;;;14.60;99.90;;;;;;5072994;28;19913;-73
2023/04/16 09:12:18;;;;;;;;;;;14.50;99.90;;;;;;5074413;28;20366;-74
2023/04/16 09:14:47;;;;;;;;;;;14.40;99.90;;;;;;5074662;28;19916;-74
2023/04/16 09:17:13;;;;;;;;;;;14.50;99.90;;;;;;5074394;28;19970;-74
2023/04/16 09:19:39;;;;;;;;;;;14.60;99.90;;;;;;5074539;28;20345;-75
2023/04/16 09:22:05;;;;;;;;;;;14.60;99.90;;;;;;5074707;28;19908;-74
2023/04/16 09:24:30;;;;;;;;;;;14.50;99.90;;;;;;5073731;28;19970;-74
2023/04/16 09:26:56;;;;;;;;;;;14.50;99.90;;;;;;5073949;28;19916;-74
2023/04/16 09:29:48;;;;;;;;;;;14.50;99.90;;;;;;5073399;28;19908;-75
2023/04/16 09:32:14;;;;;;;;;;;14.60;99.90;;;;;;5072585;28;19916;-73
2023/04/16 09:34:59;;;;;;;;;;;14.60;99.90;;;;;;5072770;28;20294;-74
2023/04/16 09:37:28;;;;;;;;;;;14.50;99.90;;;;;;5074429;28;19912;-74
2023/04/16 09:39:58;;;;;;;;;;;14.30;99.90;;;;;;5074813;28;19915;-75
2023/04/16 09:42:27;;;;;;;;;;;14.20;99.90;;;;;;5072940;28;19908;-74
2023/04/16 09:44:54;;;;;;;;;;;14.20;99.90;;;;;;5073113;28;20309;-74
2023/04/16 09:47:20;;;;;;;;;;;14.20;99.90;;;;;;5072905;28;19909;-74
2023/04/16 09:49:46;;;;;;;;;;;14.20;99.90;;;;;;5073386;28;19913;-73
2023/04/16 09:52:13;;;;;;;;;;;14.30;99.90;;;;;;5074358;28;19987;-73
2023/04/16 09:54:45;;;;;;;;;;;14.30;99.90;;;;;;5073614;28;19912;-73
2023/04/16 09:57:11;;;;;;;;;;;14.40;99.90;;;;;;5073459;28;19930;-75
2023/04/16 09:59:36;;;;;;;;;;;14.60;99.90;;;;;;5074742;28;19916;-74
2023/04/16 10:02:02;;;;;;;;;;;14.60;99.90;;;;;;5074325;28;20018;-74
2023/04/16 10:04:28;;;;;;;;;;;14.50;99.90;;;;;;5073548;28;19916;-74
2023/04/16 10:07:03;;;;;;;;;;;14.60;99.90;;;;;;5074558;28;19908;-73
2023/04/16 10:09:38;;;;;;;;;;;14.60;99.90;;;;;;5075005;28;20002;-75
2023/04/16 10:12:05;;;;;;;;;;;14.50;99.90;;;;;;5074829;28;19917;-74
2023/04/16 10:14:31;;;;;;;;;;;14.40;99.90;;;;;;5072999;28;19913;-74
2023/04/16 10:16:57;;;;;;;;;;;14.30;99.90;;;;;;5072637;28;19912;-74
2023/04/16 10:19:23;;;;;;;;;;;14.20;99.90;;;;;;5072659;28;19916;-74
2023/04/16 10:21:49;;;;;;;;;;;14.20;99.90;;;;;;5072618;28;19913;-74
2023/04/16 10:24:16;;;;;;;;;;;14.20;99.90;;;;;;5072403;28;19974;-74
2023/04/16 10:26:42;;;;;;;;;;;14.20;99.90;;;;;;5073251;28;19915;-74
2023/04/16 10:29:09;;;;;;;;;;;14.40;99.90;;;;;;5073609;28;19978;-74
2023/04/16 10:31:35;;;;;;;;;;;14.40;99.90;;;;;;5073903;28;19970;-73
2023/04/16 10:34:02;;;;;;;;;;;14.50;99.90;;;;;;5072695;28;19977;-73
2023/04/16 10:36:27;;;;;;;;;;;14.50;99.90;;;;;;5073689;28;19920;-74
2023/04/16 10:38:56;;;;;;;;;;;14.50;99.90;;;;;;5073951;28;19913;-74
2023/04/16 10:41:24;;;;;;;;;;;14.40;99.90;;;;;;5072300;28;19908;-74
2023/04/16 10:43:49;;;;;;;;;;;14.40;99.90;;;;;;5074887;28;20388;-74
2023/04/16 10:46:25;;;;;;;;;;;14.40;99.90;;;;;;5077441;28;19915;-73
2023/04/16 10:48:52;;;;;;;;;;;14.40;99.90;;;;;;5078226;28;19940;-73
2023/04/16 10:51:33;;;;;;;;;;;14.40;99.90;;;;;;5077573;28;20014;-74
2023/04/16 10:54:08;;;;;;;;;;;14.40;99.90;;;;;;5074771;28;19936;-74
2023/04/16 10:56:34;;;;;;;;;;;14.40;99.90;;;;;;5074397;28;19963;-73
2023/04/16 10:59:00;;;;;;;;;;;14.50;99.90;;;;;;5076136;28;20230;-74
2023/04/16 11:01:30;;;;;;;;;;;14.60;99.90;;;;;;5075009;28;19908;-74
2023/04/16 11:03:57;;;;;;;;;;;14.70;99.90;;;;;;5077037;28;19970;-73
2023/04/16 11:06:24;;;;;;;;;;;14.80;99.90;;;;;;5075069;28;19908;-74
2023/04/16 11:08:50;;;;;;;;;;;15.00;99.90;;;;;;5077560;28;20377;-74
2023/04/16 11:11:20;;;;;;;;;;;15.00;99.90;;;;;;5075673;28;19971;-75
2023/04/16 11:13:45;;;;;;;;;;;15.20;99.90;;;;;;5077346;28;20218;-74
2023/04/16 11:16:12;;;;;;;;;;;15.30;99.90;;;;;;5075697;28;19946;-74
2023/04/16 11:18:39;;;;;;;;;;;15.30;99.90;;;;;;5077289;28;19912;-74
2023/04/16 11:21:08;;;;;;;;;;;15.30;99.90;;;;;;5076945;28;19943;-73
2023/04/16 11:23:51;;;;;;;;;;;15.20;99.90;;;;;;5076974;28;20448;-74
2023/04/16 11:26:24;;;;;;;;;;;15.20;99.90;;;;;;5076076;28;19919;-74
2023/04/16 11:28:50;;;;;;;;;;;15.20;99.90;;;;;;5076966;28;19912;-75
2023/04/16 11:31:16;;;;;;;;;;;15.20;99.90;;;;;;5077144;28;19938;-76
2023/04/16 11:33:42;;;;;;;;;;;15.10;99.90;;;;;;5075568;28;19908;-75
2023/04/16 11:36:08;;;;;;;;;;;15.20;99.90;;;;;;5075016;28;19909;-74
2023/04/16 11:38:37;;;;;;;;;;;15.20;99.90;;;;;;5075879;28;19973;-74
2023/04/16 11:41:03;;;;;;;;;;;15.20;99.90;;;;;;5076968;28;19999;-74
2023/04/16 11:43:28;;;;;;;;;;;15.30;99.90;;;;;;5077043;28;19940;-74
2023/04/16 11:46:01;;;;;;;;;;;15.30;99.90;;;;;;5076305;28;19915;-74
2023/04/16 11:48:49;;;;;;;;;;;15.30;99.90;;;;;;5075159;28;19965;-74
2023/04/16 11:51:15;;;;;;;;;;;15.40;99.90;;;;;;5076605;28;20290;-74
2023/04/16 11:53:48;;;;;;;;;;;15.40;99.90;;;;;;5075061;28;19909;-74
2023/04/16 11:56:14;;;;;;;;;;;15.30;99.90;;;;;;5073941;28;19998;-74
2023/04/16 11:58:40;;;;;;;;;;;15.30;99.90;;;;;;5076855;28;19908;-73
2023/04/16 12:01:07;;;;;;;;;;;15.30;99.90;;;;;;5076792;28;19965;-76
2023/04/16 12:03:42;;;;;;;;;;;15.40;99.90;;;;;;5076596;28;19908;-75
2023/04/16 12:06:08;;;;;;;;;;;15.30;99.90;;;;;;5076762;28;19908;-74
2023/04/16 12:08:34;;;;;;;;;;;15.30;99.90;;;;;;5077060;28;19915;-74
2023/04/16 12:10:59;;;;;;;;;;;15.20;99.90;;;;;;5077692;28;19943;-74
2023/04/16 12:13:25;;;;;;;;;;;15.10;99.90;;;;;;5077050;28;19916;-75
2023/04/16 12:15:52;;;;;;;;;;;15.20;99.90;;;;;;5076073;28;19923;-75
2023/04/16 12:18:19;;;;;;;;;;;15.30;99.90;;;;;;5075995;28;19913;-75
2023/04/16 12:20:45;;;;;;;;;;;15.30;99.90;;;;;;5077024;28;19908;-77
2023/04/16 12:23:27;;;;;;;;;;;15.50;99.90;;;;;;5076631;28;19961;-74
2023/04/16 12:25:53;;;;;;;;;;;15.50;99.90;;;;;;5074825;28;19943;-74
2023/04/16 12:28:28;;;;;;;;;;;15.60;99.90;;;;;;5077472;28;19916;-74
2023/04/16 12:30:54;;;;;;;;;;;15.80;99.90;;;;;;5075744;28;19908;-74
2023/04/16 12:33:20;;;;;;;;;;;15.80;99.90;;;;;;5077314;28;19961;-74
2023/04/16 12:35:46;;;;;;;;;;;15.90;99.90;;;;;;5076042;28;19916;-74
2023/04/16 12:38:13;;;;;;;;;;;16.10;99.90;;;;;;5077108;28;19909;-75
2023/04/16 12:40:40;;;;;;;;;;;16.30;99.90;;;;;;5077135;28;19938;-75
2023/04/16 12:43:05;;;;;;;;;;;16.40;99.90;;;;;;5076089;28;19912;-74
2023/04/16 12:45:31;;;;;;;;;;;16.50;99.90;;;;;;5075575;28;19916;-75
2023/04/16 12:47:57;;;;;;;;;;;16.50;99.90;;;;;;5076512;28;20389;-75
2023/04/16 12:50:22;;;;;;;;;;;16.40;99.90;;;;;;5076568;28;19954;-75
2023/04/16 12:52:48;;;;;;;;;;;16.30;99.90;;;;;;5077007;28;20290;-74
2023/04/16 12:55:14;;;;;;;;;;;16.30;99.90;;;;;;5076628;28;20381;-74
2023/04/16 12:57:39;;;;;;;;;;;16.30;99.90;;;;;;5076370;28;19977;-74
2023/04/16 13:00:07;;;;;;;;;;;16.10;99.90;;;;;;5077392;28;19909;-74
2023/04/16 13:02:32;;;;;;;;;;;16.20;99.90;;;;;;5075509;28;19915;-76
2023/04/16 13:04:58;;;;;;;;;;;16.00;99.90;;;;;;5077240;28;20002;-75
2023/04/16 13:07:25;;;;;;;;;;;15.90;99.90;;;;;;5075783;28;19916;-74
2023/04/16 13:09:51;;;;;;;;;;;15.80;99.90;;;;;;5079122;28;20011;-74
2023/04/16 13:12:16;;;;;;;;;;;15.70;99.90;;;;;;5079215;28;19948;-74
2023/04/16 13:14:42;;;;;;;;;;;15.70;99.90;;;;;;5080144;28;20409;-75
2023/04/16 13:17:08;;;;;;;;;;;15.70;99.90;;;;;;5079535;28;19976;-75
2023/04/16 13:19:33;;;;;;;;;;;15.60;99.90;;;;;;5080753;28;19908;-74
2023/04/16 13:21:59;;;;;;;;;;;15.60;99.90;;;;;;5080373;28;19909;-77
2023/04/16 13:24:24;;;;;;;;;;;15.60;99.90;;;;;;5077934;28;19927;-75
2023/04/16 13:26:55;;;;;;;;;;;15.70;99.90;;;;;;5077930;28;19908;-74
2023/04/16 13:29:21;;;;;;;;;;;15.60;99.90;;;;;;5078436;28;19954;-75
2023/04/16 13:31:46;;;;;;;;;;;15.60;99.90;;;;;;5076143;28;19908;-74
2023/04/16 13:34:12;;;;;;;;;;;15.60;99.90;;;;;;5078384;28;19945;-74
2023/04/16 13:36:38;;;;;;;;;;;15.50;99.90;;;;;;5077711;28;19931;-74
2023/04/16 13:39:09;;;;;;;;;;;15.40;99.90;;;;;;5076514;28;19931;-73
2023/04/16 13:41:35;;;;;;;;;;;15.30;99.90;;;;;;5075610;28;20370;-74
2023/04/16 13:44:00;;;;;;;;;;;15.20;99.90;;;;;;5076135;28;19908;-74
2023/04/16 13:46:27;;;;;;;;;;;15.10;99.90;;;;;;5076097;28;19937;-76
2023/04/16 13:48:53;;;;;;;;;;;15.00;99.90;;;;;;5076358;28;20011;-74
2023/04/16 13:51:19;;;;;;;;;;;15.00;99.90;;;;;;5077217;28;19944;-74
2023/04/16 13:53:44;;;;;;;;;;;15.00;99.90;;;;;;5076345;28;19943;-74
2023/04/16 13:56:10;;;;;;;;;;;15.00;99.90;;;;;;5073830;28;19959;-74
2023/04/16 13:58:36;;;;;;;;;;;15.10;99.90;;;;;;5075555;28;19913;-74
2023/04/16 14:01:02;;;;;;;;;;;15.10;99.90;;;;;;5073899;28;20343;-76
2023/04/16 14:03:27;;;;;;;;;;;15.10;99.90;;;;;;5075328;28;19916;-74
2023/04/16 14:05:53;;;;;;;;;;;15.00;99.90;;;;;;5075125;28;19909;-74
2023/04/16 14:08:20;;;;;;;;;;;14.90;99.90;;;;;;5075514;28;19928;-73
2023/04/16 14:10:46;;;;;;;;;;;14.90;99.90;;;;;;5073467;28;19909;-74